Time;durP1;ratioP1;P1;durP2;ratioP2;P2;SDS_P1;SDS_P2;PMS_P1;PMS_P2;Temp;Humidity;BMP_temperature;BMP_pressure;BME280_temperature;BME280_humidity;BME280_pressure;Samples;Min_cycle;Max_cycle;Signal;HPM_P1;HPM_P2
2022/03/16 00:00:25;;;;;;;135.45;40.00;;;;;;;;;;5013898;28;20032;-81
2022/03/16 00:02:52;;;;;;;227.13;52.17;;;;;;;;;;5003609;28;20032;-81
2022/03/16 00:05:18;;;;;;;171.18;45.88;;;;;;;;;;5027080;28;20111;-80
2022/03/16 00:07:47;;;;;;;163.75;42.28;;;;;;;;;;5032841;28;20562;-82
2022/03/16 00:10:14;;;;;;;166.75;42.38;;;;;;;;;;5024465;28;20022;-82
2022/03/16 00:12:43;;;;;;;194.52;45.20;;;;;;;;;;5012959;28;20037;-86
2022/03/16 00:15:09;;;;;;;166.23;41.30;;;;;;;;;;5008898;28;20398;-85
2022/03/16 00:17:37;;;;;;;191.95;42.78;;;;;;;;;;5004837;28;20084;-84
2022/03/16 00:20:03;;;;;;;310.38;51.67;;;;;;;;;;5013057;28;20716;-81
2022/03/16 00:22:32;;;;;;;255.50;44.17;;;;;;;;;;5012664;28;20568;-82
2022/03/16 00:24:58;;;;;;;212.25;41.33;;;;;;;;;;5023729;28;20037;-82
2022/03/16 00:27:25;;;;;;;186.25;38.65;;;;;;;;;;5015428;28;20061;-80
2022/03/16 00:29:51;;;;;;;222.15;40.90;;;;;;;;;;5014656;28;20419;-82
2022/03/16 00:32:18;;;;;;;262.60;40.45;;;;;;;;;;5020173;28;20056;-81
2022/03/16 00:34:57;;;;;;;127.22;31.30;;;;;;;;;;5002908;28;20030;-82
2022/03/16 00:37:28;;;;;;;311.52;44.08;;;;;;;;;;4984366;28;20033;-88
2022/03/16 00:39:54;;;;;;;328.42;46.85;;;;;;;;;;4991350;28;20025;-89
2022/03/16 00:42:25;;;;;;;321.30;44.83;;;;;;;;;;4987398;28;20035;-88
2022/03/16 00:44:55;;;;;;;300.10;45.38;;;;;;;;;;4994980;28;20026;-88
2022/03/16 00:47:21;;;;;;;336.88;49.80;;;;;;;;;;5002281;28;20029;-88
2022/03/16 00:49:48;;;;;;;495.13;54.63;;;;;;;;;;5011773;28;20451;-90
2022/03/16 00:52:14;;;;;;;523.20;61.63;;;;;;;;;;4992577;28;20096;-86
2022/03/16 00:54:42;;;;;;;253.77;40.75;;;;;;;;;;4978235;28;20049;-86
2022/03/16 00:57:08;;;;;;;506.95;56.97;;;;;;;;;;4995397;28;20464;-85
2022/03/16 00:59:35;;;;;;;416.95;50.95;;;;;;;;;;4995854;28;20489;-84
2022/03/16 01:02:01;;;;;;;578.50;63.63;;;;;;;;;;5008404;28;20431;-86
2022/03/16 01:04:29;;;;;;;541.08;56.55;;;;;;;;;;5009311;28;20034;-85
2022/03/16 01:06:55;;;;;;;511.80;57.38;;;;;;;;;;5006217;28;20504;-87
2022/03/16 01:09:22;;;;;;;521.08;61.30;;;;;;;;;;4989229;28;20070;-85
2022/03/16 01:11:48;;;;;;;300.02;45.10;;;;;;;;;;4994570;28;20400;-87
2022/03/16 01:14:16;;;;;;;512.28;60.03;;;;;;;;;;5010601;28;20022;-85
2022/03/16 01:16:42;;;;;;;264.15;42.85;;;;;;;;;;4993815;28;20041;-86
2022/03/16 01:19:14;;;;;;;320.15;49.03;;;;;;;;;;5006939;28;20022;-87
2022/03/16 01:21:41;;;;;;;367.92;52.47;;;;;;;;;;4987720;28;20525;-88
2022/03/16 01:24:08;;;;;;;296.33;45.95;;;;;;;;;;4993218;28;20038;-87
2022/03/16 01:26:34;;;;;;;216.60;38.63;;;;;;;;;;4988301;28;20054;-89
2022/03/16 01:29:03;;;;;;;179.55;36.42;;;;;;;;;;4987167;28;20480;-89
2022/03/16 01:31:33;;;;;;;163.40;34.13;;;;;;;;;;5009402;28;20056;-89
2022/03/16 01:33:59;;;;;;;123.00;29.80;;;;;;;;;;4997062;28;20045;-89
2022/03/16 01:36:25;;;;;;;136.57;33.97;;;;;;;;;;5001670;28;20053;-88
2022/03/16 01:38:52;;;;;;;150.88;32.70;;;;;;;;;;5009682;28;20026;-88
2022/03/16 01:41:18;;;;;;;131.63;32.25;;;;;;;;;;5024302;28;20026;-89
2022/03/16 01:43:44;;;;;;;123.75;31.58;;;;;;;;;;5011897;28;20552;-88
2022/03/16 01:46:11;;;;;;;107.82;28.10;;;;;;;;;;5009305;28;20021;-89
2022/03/16 01:48:37;;;;;;;117.00;29.25;;;;;;;;;;5008307;28;20037;-89
2022/03/16 01:51:04;;;;;;;154.77;32.97;;;;;;;;;;5008936;28;20400;-88
2022/03/16 01:53:36;;;;;;;237.27;36.33;;;;;;;;;;5012261;28;20026;-89
2022/03/16 01:56:03;;;;;;;183.35;35.47;;;;;;;;;;5009041;28;20026;-89
2022/03/16 01:58:29;;;;;;;152.55;30.65;;;;;;;;;;5002149;28;20022;-89
2022/03/16 02:00:56;;;;;;;97.47;28.17;;;;;;;;;;5009860;28;20510;-89
2022/03/16 02:03:22;;;;;;;140.02;31.35;;;;;;;;;;5002998;28;20473;-89
2022/03/16 02:05:49;;;;;;;97.68;26.48;;;;;;;;;;5009972;28;20519;-88
2022/03/16 02:08:15;;;;;;;91.70;26.40;;;;;;;;;;5027771;28;20480;-89
2022/03/16 02:10:41;;;;;;;96.28;27.13;;;;;;;;;;5011350;28;20400;-89
2022/03/16 02:13:11;;;;;;;110.60;28.92;;;;;;;;;;5026765;28;20762;-87
2022/03/16 02:15:39;;;;;;;106.10;27.95;;;;;;;;;;5027311;28;20026;-90
2022/03/16 02:18:06;;;;;;;159.10;32.67;;;;;;;;;;5004336;28;20022;-88
2022/03/16 02:20:33;;;;;;;120.20;29.92;;;;;;;;;;5014598;28;20112;-88
2022/03/16 02:23:01;;;;;;;117.57;31.38;;;;;;;;;;5005598;28;20546;-88
2022/03/16 02:25:28;;;;;;;94.40;26.58;;;;;;;;;;5015227;28;20057;-88
2022/03/16 02:27:57;;;;;;;114.45;28.02;;;;;;;;;;5030086;28;20033;-88
2022/03/16 02:30:24;;;;;;;60.00;20.90;;;;;;;;;;5015232;28;20428;-88
2022/03/16 02:32:51;;;;;;;50.20;20.70;;;;;;;;;;5014814;28;20382;-88
2022/03/16 02:35:17;;;;;;;52.10;21.63;;;;;;;;;;5012262;28;20052;-88
2022/03/16 02:37:43;;;;;;;111.35;43.05;;;;;;;;;;5014694;28;20030;-87
2022/03/16 02:40:27;;;;;;;141.00;52.20;;;;;;;;;;5010966;28;20026;-89
2022/03/16 02:42:54;;;;;;;119.50;44.78;;;;;;;;;;5008391;28;20113;-88
2022/03/16 02:45:20;;;;;;;91.38;39.42;;;;;;;;;;5003102;28;20577;-88
2022/03/16 02:48:08;;;;;;;74.45;32.90;;;;;;;;;;5002644;28;20529;-89
2022/03/16 02:50:35;;;;;;;128.68;43.22;;;;;;;;;;5027491;28;20037;-89
2022/03/16 02:53:05;;;;;;;154.15;53.65;;;;;;;;;;5011031;28;20123;-89
2022/03/16 02:55:40;;;;;;;191.93;57.40;;;;;;;;;;4666519;28;10001016;-91
2022/03/16 02:58:07;;;;;;;154.45;57.85;;;;;;;;;;5010606;28;20025;-86
2022/03/16 03:00:53;;;;;;;136.70;54.17;;;;;;;;;;5007916;28;20839;-86
2022/03/16 03:03:31;;;;;;;138.48;50.40;;;;;;;;;;5005623;28;20358;-85
2022/03/16 03:05:57;;;;;;;153.23;50.28;;;;;;;;;;5029469;28;20489;-86
2022/03/16 03:08:25;;;;;;;137.63;51.45;;;;;;;;;;5010120;28;20469;-86
2022/03/16 03:10:51;;;;;;;140.38;49.17;;;;;;;;;;5028518;28;20392;-86
2022/03/16 03:13:17;;;;;;;151.45;54.05;;;;;;;;;;5016930;28;20052;-86
2022/03/16 03:15:44;;;;;;;159.98;57.55;;;;;;;;;;5012865;28;20416;-86
2022/03/16 03:18:10;;;;;;;151.65;55.70;;;;;;;;;;5010891;28;20037;-85
2022/03/16 03:20:36;;;;;;;170.40;59.47;;;;;;;;;;5004734;28;20500;-85
2022/03/16 03:23:03;;;;;;;165.07;58.03;;;;;;;;;;5020592;28;20068;-86
2022/03/16 03:25:29;;;;;;;177.95;60.17;;;;;;;;;;5005052;28;20045;-84
2022/03/16 03:27:55;;;;;;;158.77;56.90;;;;;;;;;;5029171;28;20034;-85
2022/03/16 03:30:22;;;;;;;169.93;56.00;;;;;;;;;;5011221;28;20091;-84
2022/03/16 03:32:48;;;;;;;205.73;64.82;;;;;;;;;;5008587;28;20121;-82
2022/03/16 03:35:14;;;;;;;216.98;67.35;;;;;;;;;;5008612;28;20021;-82
2022/03/16 03:37:41;;;;;;;180.70;60.60;;;;;;;;;;5028576;28;20045;-83
2022/03/16 03:40:08;;;;;;;189.88;61.55;;;;;;;;;;5012183;28;20025;-83
2022/03/16 03:42:34;;;;;;;160.13;53.28;;;;;;;;;;5001905;28;20034;-83
2022/03/16 03:45:00;;;;;;;185.95;58.65;;;;;;;;;;4997872;28;20026;-82
2022/03/16 03:47:27;;;;;;;198.77;60.10;;;;;;;;;;5011809;28;20018;-83
2022/03/16 03:49:54;;;;;;;199.38;61.33;;;;;;;;;;5011730;28;20030;-83
2022/03/16 03:52:24;;;;;;;195.98;58.47;;;;;;;;;;5010973;28;20025;-83
2022/03/16 03:54:52;;;;;;;226.27;62.10;;;;;;;;;;5012109;28;20069;-83
2022/03/16 03:57:18;;;;;;;234.20;63.00;;;;;;;;;;5011814;28;20306;-82
2022/03/16 03:59:44;;;;;;;161.63;53.58;;;;;;;;;;5012420;28;20030;-82
2022/03/16 04:02:11;;;;;;;157.48;52.58;;;;;;;;;;5006188;28;20495;-83
2022/03/16 04:04:37;;;;;;;154.13;51.85;;;;;;;;;;5019732;28;20072;-83
2022/03/16 04:07:04;;;;;;;176.23;55.13;;;;;;;;;;5013093;28;20041;-84
2022/03/16 04:09:30;;;;;;;157.38;52.80;;;;;;;;;;5008201;28;20036;-84
2022/03/16 04:12:01;;;;;;;150.90;49.25;;;;;;;;;;5006403;28;20033;-83
2022/03/16 04:14:30;;;;;;;132.05;46.40;;;;;;;;;;4664303;28;10000693;-84
2022/03/16 04:16:56;;;;;;;117.82;38.90;;;;;;;;;;4998545;28;20473;-84
2022/03/16 04:19:23;;;;;;;106.38;37.90;;;;;;;;;;5009737;28;20528;-84
2022/03/16 04:21:52;;;;;;;116.05;43.80;;;;;;;;;;5012143;28;20033;-84
2022/03/16 04:24:19;;;;;;;119.32;41.67;;;;;;;;;;5009436;28;20037;-84
2022/03/16 04:26:45;;;;;;;115.93;42.65;;;;;;;;;;5006707;28;20065;-84
2022/03/16 04:29:11;;;;;;;109.85;41.47;;;;;;;;;;5028826;28;20117;-84
2022/03/16 04:31:45;;;;;;;151.13;52.80;;;;;;;;;;5014603;28;20030;-85
2022/03/16 04:34:12;;;;;;;135.70;50.40;;;;;;;;;;5033433;28;20575;-85
2022/03/16 04:36:39;;;;;;;162.65;56.90;;;;;;;;;;5017058;28;20026;-84
2022/03/16 04:39:08;;;;;;;137.30;48.38;;;;;;;;;;5032236;28;20028;-84
2022/03/16 04:41:34;;;;;;;119.75;43.63;;;;;;;;;;5028689;28;20026;-84
2022/03/16 04:44:01;;;;;;;103.30;41.38;;;;;;;;;;5014189;28;20044;-85
2022/03/16 04:46:27;;;;;;;106.75;40.08;;;;;;;;;;5015297;28;20025;-85
2022/03/16 04:48:53;;;;;;;128.10;46.63;;;;;;;;;;5018073;28;20139;-84
2022/03/16 04:51:20;;;;;;;141.70;52.92;;;;;;;;;;5031679;28;20021;-84
2022/03/16 04:53:46;;;;;;;129.20;50.60;;;;;;;;;;5030525;28;20482;-85
2022/03/16 04:56:13;;;;;;;125.18;46.67;;;;;;;;;;5013135;28;20113;-85
2022/03/16 04:58:41;;;;;;;142.63;50.50;;;;;;;;;;5014480;28;20022;-84
2022/03/16 05:01:07;;;;;;;119.28;45.70;;;;;;;;;;5008827;28;20029;-86
2022/03/16 05:03:33;;;;;;;153.30;52.03;;;;;;;;;;5037279;28;20040;-86
2022/03/16 05:06:04;;;;;;;135.50;48.08;;;;;;;;;;5012129;28;20041;-85
2022/03/16 05:08:35;;;;;;;123.22;44.42;;;;;;;;;;5031489;28;20223;-86
2022/03/16 05:11:03;;;;;;;125.38;45.33;;;;;;;;;;5023093;28;20045;-85
2022/03/16 05:13:29;;;;;;;127.00;46.25;;;;;;;;;;5021294;28;20051;-85
2022/03/16 05:15:58;;;;;;;117.35;44.88;;;;;;;;;;5011386;28;20025;-85
2022/03/16 05:18:26;;;;;;;128.27;44.58;;;;;;;;;;5013257;28;20476;-85
2022/03/16 05:20:52;;;;;;;120.13;43.42;;;;;;;;;;5027860;28;20022;-85
2022/03/16 05:23:18;;;;;;;116.15;42.67;;;;;;;;;;5032627;28;20472;-85
2022/03/16 05:25:51;;;;;;;151.88;51.22;;;;;;;;;;5010848;28;20381;-87
2022/03/16 05:28:17;;;;;;;163.57;56.33;;;;;;;;;;5014122;28;20120;-87
2022/03/16 05:30:46;;;;;;;164.80;58.50;;;;;;;;;;5011038;28;20496;-88
2022/03/16 05:33:14;;;;;;;175.02;59.28;;;;;;;;;;5010534;28;20543;-86
2022/03/16 05:35:43;;;;;;;180.90;60.40;;;;;;;;;;5004800;28;20030;-87
2022/03/16 05:38:15;;;;;;;167.27;55.80;;;;;;;;;;5008846;28;20026;-87
2022/03/16 05:40:41;;;;;;;148.60;50.90;;;;;;;;;;5009351;28;20022;-87
2022/03/16 05:43:09;;;;;;;143.88;50.65;;;;;;;;;;5019952;28;20497;-86
2022/03/16 05:45:38;;;;;;;144.60;50.95;;;;;;;;;;5013963;28;20033;-86
2022/03/16 05:48:05;;;;;;;208.60;58.50;;;;;;;;;;5012735;28;20084;-86
2022/03/16 05:50:32;;;;;;;183.93;59.33;;;;;;;;;;5031826;28;20061;-86
2022/03/16 05:53:00;;;;;;;191.00;57.47;;;;;;;;;;5017516;28;20149;-86
2022/03/16 05:55:28;;;;;;;182.43;57.00;;;;;;;;;;5015233;28;20384;-86
2022/03/16 05:57:54;;;;;;;190.48;59.30;;;;;;;;;;5016906;28;20026;-86
2022/03/16 06:00:22;;;;;;;210.27;63.05;;;;;;;;;;5025476;28;20026;-86
2022/03/16 06:02:49;;;;;;;172.20;56.80;;;;;;;;;;5025837;28;20030;-86
2022/03/16 06:05:16;;;;;;;169.18;54.40;;;;;;;;;;5007875;28;20160;-86
2022/03/16 06:07:44;;;;;;;176.02;53.25;;;;;;;;;;5030950;28;20022;-85
2022/03/16 06:10:17;;;;;;;187.20;57.03;;;;;;;;;;5031383;28;20021;-86
2022/03/16 06:13:03;;;;;;;230.93;62.17;;;;;;;;;;5028363;28;20034;-85
2022/03/16 06:15:37;;;;;;;203.43;61.60;;;;;;;;;;5031634;28;20029;-85
2022/03/16 06:18:04;;;;;;;218.52;61.05;;;;;;;;;;5026262;28;20470;-86
2022/03/16 06:20:34;;;;;;;207.25;61.03;;;;;;;;;;5027656;28;20096;-87
2022/03/16 06:23:00;;;;;;;189.88;59.58;;;;;;;;;;5015037;28;20080;-84
2022/03/16 06:25:34;;;;;;;181.98;58.47;;;;;;;;;;5011639;28;20347;-86
2022/03/16 06:28:01;;;;;;;182.73;56.70;;;;;;;;;;5017306;28;20030;-86
2022/03/16 06:30:28;;;;;;;166.55;54.92;;;;;;;;;;5014461;28;20032;-84
2022/03/16 06:33:01;;;;;;;160.05;53.17;;;;;;;;;;5011655;28;20051;-85
2022/03/16 06:35:27;;;;;;;138.85;49.10;;;;;;;;;;5009104;28;20080;-85
2022/03/16 06:37:53;;;;;;;126.78;46.50;;;;;;;;;;5013793;28;20032;-85
2022/03/16 06:40:19;;;;;;;118.20;44.50;;;;;;;;;;5013315;28;20033;-84
2022/03/16 06:42:53;;;;;;;113.13;43.20;;;;;;;;;;5005077;28;20500;-85
2022/03/16 06:45:23;;;;;;;116.65;43.10;;;;;;;;;;5008907;28;20033;-85
2022/03/16 06:47:49;;;;;;;111.22;40.47;;;;;;;;;;5027883;28;20044;-85
2022/03/16 06:50:16;;;;;;;107.47;41.95;;;;;;;;;;5013885;28;20022;-85
2022/03/16 06:52:42;;;;;;;108.50;42.10;;;;;;;;;;5002840;28;20038;-85
2022/03/16 06:55:09;;;;;;;98.55;38.67;;;;;;;;;;5025444;28;20018;-84
2022/03/16 06:57:36;;;;;;;97.90;37.42;;;;;;;;;;5028373;28;20053;-84
2022/03/16 07:00:03;;;;;;;101.78;39.63;;;;;;;;;;5012950;28;20117;-85
2022/03/16 07:02:30;;;;;;;99.13;38.97;;;;;;;;;;5011045;28;20041;-84
2022/03/16 07:04:58;;;;;;;79.18;32.58;;;;;;;;;;5002629;28;20089;-85
2022/03/16 07:07:26;;;;;;;79.00;32.72;;;;;;;;;;5013728;28;20036;-86
2022/03/16 07:09:53;;;;;;;80.43;30.13;;;;;;;;;;5013791;28;20440;-85
2022/03/16 07:12:24;;;;;;;79.03;29.13;;;;;;;;;;5023033;28;20096;-85
2022/03/16 07:14:51;;;;;;;65.43;26.98;;;;;;;;;;5013328;28;20022;-84
2022/03/16 07:17:18;;;;;;;54.78;23.38;;;;;;;;;;5026778;28;20041;-84
2022/03/16 07:19:44;;;;;;;64.05;25.60;;;;;;;;;;5019256;28;20963;-84
2022/03/16 07:22:11;;;;;;;60.42;23.92;;;;;;;;;;5012467;28;20092;-85
2022/03/16 07:24:40;;;;;;;71.43;29.38;;;;;;;;;;5025762;28;20092;-84
2022/03/16 07:27:07;;;;;;;70.03;28.75;;;;;;;;;;5028330;28;20033;-87
2022/03/16 07:29:38;;;;;;;69.15;28.17;;;;;;;;;;5025789;28;20026;-88
2022/03/16 07:32:04;;;;;;;70.65;28.60;;;;;;;;;;5013470;28;20037;-88
2022/03/16 07:34:30;;;;;;;63.25;25.05;;;;;;;;;;5012800;28;20062;-88
2022/03/16 07:37:12;;;;;;;55.92;21.92;;;;;;;;;;5014515;28;20028;-90
2022/03/16 07:39:42;;;;;;;45.63;18.85;;;;;;;;;;5030446;28;20018;-89
2022/03/16 07:42:13;;;;;;;46.47;19.42;;;;;;;;;;5014434;28;20360;-89
2022/03/16 07:44:39;;;;;;;54.67;19.70;;;;;;;;;;5014716;28;20033;-89
2022/03/16 07:47:14;;;;;;;49.50;19.80;;;;;;;;;;4999876;28;20477;-89
2022/03/16 07:49:40;;;;;;;52.92;21.42;;;;;;;;;;5017807;28;20030;-90
2022/03/16 07:52:14;;;;;;;59.42;25.60;;;;;;;;;;5012243;28;20491;-89
2022/03/16 07:54:40;;;;;;;62.35;25.50;;;;;;;;;;5009553;28;20030;-90
2022/03/16 07:57:07;;;;;;;75.40;27.95;;;;;;;;;;5010565;28;20036;-89
2022/03/16 07:59:34;;;;;;;57.97;23.25;;;;;;;;;;5010504;28;20034;-89
2022/03/16 08:02:00;;;;;;;57.95;23.52;;;;;;;;;;5012932;28;20121;-90
2022/03/16 08:04:27;;;;;;;54.50;21.73;;;;;;;;;;5010193;28;20113;-91
2022/03/16 08:06:53;;;;;;;63.63;26.42;;;;;;;;;;4999919;28;20492;-89
2022/03/16 08:09:19;;;;;;;61.30;25.83;;;;;;;;;;5011761;28;20034;-89
2022/03/16 08:11:46;;;;;;;65.22;27.83;;;;;;;;;;4995458;28;20026;-90
2022/03/16 08:14:22;;;;;;;71.07;28.58;;;;;;;;;;5004608;28;20026;-90
2022/03/16 08:16:49;;;;;;;65.30;26.55;;;;;;;;;;5002734;28;20505;-90
2022/03/16 08:19:16;;;;;;;62.83;26.20;;;;;;;;;;5009308;28;20116;-89
2022/03/16 08:21:43;;;;;;;63.90;27.15;;;;;;;;;;5003206;28;20030;-91
2022/03/16 08:24:14;;;;;;;66.03;26.60;;;;;;;;;;5006860;28;20397;-89
2022/03/16 08:26:51;;;;;;;71.25;26.45;;;;;;;;;;5024428;28;20022;-90
2022/03/16 08:29:17;;;;;;;63.00;26.83;;;;;;;;;;5012413;28;20045;-90
2022/03/16 08:31:44;;;;;;;64.85;25.75;;;;;;;;;;5005703;28;20492;-91
2022/03/16 08:34:10;;;;;;;63.45;25.45;;;;;;;;;;5008725;28;20045;-90
2022/03/16 08:36:40;;;;;;;60.63;26.15;;;;;;;;;;5019739;28;20064;-89
2022/03/16 08:39:07;;;;;;;73.97;28.63;;;;;;;;;;5011202;28;20029;-90
2022/03/16 08:41:35;;;;;;;71.70;28.33;;;;;;;;;;5018353;28;20558;-89
2022/03/16 08:44:02;;;;;;;73.35;28.08;;;;;;;;;;5005674;28;20047;-91
2022/03/16 08:46:31;;;;;;;72.90;28.98;;;;;;;;;;5008473;28;20052;-89
2022/03/16 08:48:57;;;;;;;72.80;29.40;;;;;;;;;;5004602;28;20030;-89
2022/03/16 08:51:27;;;;;;;62.72;26.50;;;;;;;;;;5027417;28;20050;-89
2022/03/16 08:53:53;;;;;;;70.13;27.65;;;;;;;;;;5012306;28;20026;-90
2022/03/16 08:56:22;;;;;;;63.95;27.33;;;;;;;;;;5026108;28;20490;-90
2022/03/16 08:58:48;;;;;;;62.50;25.90;;;;;;;;;;5024139;28;20113;-91
2022/03/16 09:01:15;;;;;;;74.10;30.25;;;;;;;;;;5021105;28;20476;-90
2022/03/16 09:03:41;;;;;;;63.40;26.27;;;;;;;;;;5023581;28;20033;-90
2022/03/16 09:06:11;;;;;;;62.97;27.17;;;;;;;;;;5027571;28;20531;-90
2022/03/16 09:08:37;;;;;;;62.63;24.25;;;;;;;;;;5028323;28;20056;-89
2022/03/16 09:11:20;;;;;;;64.95;25.83;;;;;;;;;;5020653;28;20091;-90
2022/03/16 09:13:50;;;;;;;63.22;24.73;;;;;;;;;;5027073;28;20128;-90
2022/03/16 09:16:17;;;;;;;67.53;25.95;;;;;;;;;;5009580;28;20125;-90
2022/03/16 09:18:45;;;;;;;66.82;24.85;;;;;;;;;;5010061;28;20448;-89
2022/03/16 09:21:12;;;;;;;64.40;25.02;;;;;;;;;;5007262;28;20370;-90
2022/03/16 09:23:38;;;;;;;69.43;27.17;;;;;;;;;;5010221;28;20112;-89
2022/03/16 09:26:06;;;;;;;62.97;24.30;;;;;;;;;;5014853;28;20057;-89
2022/03/16 09:28:33;;;;;;;60.33;24.52;;;;;;;;;;5005987;28;20145;-89
2022/03/16 09:31:00;;;;;;;66.13;23.95;;;;;;;;;;5008371;28;20465;-89
2022/03/16 09:33:32;;;;;;;68.55;26.05;;;;;;;;;;5023906;28;20050;-89
2022/03/16 09:36:00;;;;;;;64.18;25.63;;;;;;;;;;5009352;28;20412;-89
2022/03/16 09:38:27;;;;;;;64.00;23.80;;;;;;;;;;5024519;28;20109;-89
2022/03/16 09:40:56;;;;;;;72.85;24.60;;;;;;;;;;5020527;28;20125;-88
2022/03/16 09:43:25;;;;;;;71.78;26.10;;;;;;;;;;5016934;28;20109;-89
2022/03/16 09:45:57;;;;;;;59.60;24.25;;;;;;;;;;5013683;28;20084;-91
2022/03/16 09:48:27;;;;;;;69.82;29.30;;;;;;;;;;5010926;28;20029;-89
2022/03/16 09:50:55;;;;;;;68.53;27.33;;;;;;;;;;5001134;28;20022;-90
2022/03/16 09:53:23;;;;;;;65.30;25.17;;;;;;;;;;5015406;28;20477;-89
2022/03/16 09:55:52;;;;;;;58.35;25.50;;;;;;;;;;5008413;28;20022;-90
2022/03/16 09:58:27;;;;;;;67.35;26.15;;;;;;;;;;5004171;28;20041;-88
2022/03/16 10:00:55;;;;;;;60.72;25.92;;;;;;;;;;5017404;28;20026;-90
2022/03/16 10:03:23;;;;;;;65.63;27.52;;;;;;;;;;5009570;28;20084;-89
2022/03/16 10:05:50;;;;;;;69.38;27.13;;;;;;;;;;5009471;28;20503;-90
2022/03/16 10:08:30;;;;;;;63.47;25.27;;;;;;;;;;5006734;28;20033;-91
2022/03/16 10:13:58;;;;;;;72.72;26.27;;;;;;;;;;5001637;28;20084;-91
2022/03/16 10:17:43;;;;;;;78.03;29.38;;;;;;;;;;5014742;28;20038;-89
2022/03/16 10:19:24;;;;;;;71.95;29.23;;;;;;;;;;5004448;28;20207;-91
2022/03/16 10:22:00;;;;;;;78.05;32.30;;;;;;;;;;5000581;28;20072;-91
2022/03/16 10:24:32;;;;;;;88.03;37.00;;;;;;;;;;5000167;28;20030;-90
2022/03/16 10:26:58;;;;;;;88.90;40.05;;;;;;;;;;5024005;28;20061;-90
2022/03/16 10:29:26;;;;;;;90.85;38.55;;;;;;;;;;5012455;28;20030;-90
2022/03/16 10:32:04;;;;;;;87.47;37.95;;;;;;;;;;5006897;28;20076;-91
2022/03/16 10:34:30;;;;;;;87.07;38.30;;;;;;;;;;5001774;28;20089;-90
2022/03/16 10:36:59;;;;;;;86.82;35.67;;;;;;;;;;5009272;28;20022;-89
2022/03/16 10:39:33;;;;;;;90.85;42.47;;;;;;;;;;5027280;28;20485;-91
2022/03/16 10:48:02;;;;;;;100.90;41.15;;;;;;;;;;5015306;28;20072;-90
2022/03/16 10:50:39;;;;;;;104.35;45.13;;;;;;;;;;5020386;28;20029;-90
2022/03/16 10:53:06;;;;;;;97.05;47.47;;;;;;;;;;5031894;28;20125;-90
2022/03/16 10:55:35;;;;;;;108.30;52.10;;;;;;;;;;5030010;28;20469;-90
2022/03/16 10:58:02;;;;;;;108.07;49.40;;;;;;;;;;5013825;28;20026;-90
2022/03/16 11:00:35;;;;;;;117.78;53.15;;;;;;;;;;5007406;28;20112;-89
2022/03/16 11:03:03;;;;;;;111.78;52.65;;;;;;;;;;5010316;28;20022;-90
2022/03/16 11:05:36;;;;;;;105.85;50.05;;;;;;;;;;5010265;28;20552;-91
2022/03/16 11:08:05;;;;;;;106.00;46.67;;;;;;;;;;5014026;28;20067;-89
2022/03/16 11:10:43;;;;;;;86.30;38.47;;;;;;;;;;5027443;28;20030;-89
2022/03/16 11:16:02;;;;;;;76.15;37.53;;;;;;;;;;5009307;28;20041;-88
2022/03/16 11:18:29;;;;;;;81.95;38.10;;;;;;;;;;5012107;28;20088;-90
2022/03/16 11:20:56;;;;;;;76.10;38.53;;;;;;;;;;5015079;28;20022;-90
2022/03/16 11:26:18;;;;;;;87.97;39.83;;;;;;;;;;5008348;28;20183;-90
2022/03/16 11:28:52;;;;;;;92.22;41.88;;;;;;;;;;5010713;28;20025;-88
2022/03/16 11:31:24;;;;;;;89.40;41.05;;;;;;;;;;5024483;28;20038;-88
2022/03/16 11:33:51;;;;;;;96.13;42.03;;;;;;;;;;5014872;28;20126;-90
2022/03/16 11:36:42;;;;;;;95.75;41.58;;;;;;;;;;5011883;28;20041;-88
2022/03/16 11:39:29;;;;;;;82.20;37.40;;;;;;;;;;5002443;28;20041;-87
2022/03/16 11:41:56;;;;;;;91.05;43.88;;;;;;;;;;4998492;28;20033;-88
2022/03/16 11:44:26;;;;;;;100.80;49.22;;;;;;;;;;5012414;28;20068;-87
2022/03/16 11:46:56;;;;;;;87.38;40.75;;;;;;;;;;5008744;28;20018;-89
2022/03/16 11:49:29;;;;;;;91.22;39.60;;;;;;;;;;5014016;28;20116;-89
2022/03/16 11:52:04;;;;;;;87.72;37.05;;;;;;;;;;4987477;28;20038;-89
2022/03/16 11:54:45;;;;;;;82.32;37.42;;;;;;;;;;4994080;28;20037;-88
2022/03/16 11:57:12;;;;;;;91.05;42.47;;;;;;;;;;5020692;28;20393;-88
2022/03/16 11:59:52;;;;;;;82.88;39.78;;;;;;;;;;5012250;28;20031;-88
2022/03/16 12:02:20;;;;;;;94.90;41.55;;;;;;;;;;4994906;28;21462;-88
2022/03/16 12:04:48;;;;;;;105.20;46.03;;;;;;;;;;5012571;28;20030;-87
2022/03/16 12:07:18;;;;;;;90.68;43.00;;;;;;;;;;5014426;28;20038;-87
2022/03/16 12:09:52;;;;;;;94.40;43.75;;;;;;;;;;5013532;28;20033;-88
2022/03/16 12:15:22;;;;;;;89.25;42.80;;;;;;;;;;5012078;28;20492;-88
2022/03/16 12:17:51;;;;;;;96.72;44.17;;;;;;;;;;4995490;28;20017;-88
2022/03/16 12:20:24;;;;;;;91.00;43.25;;;;;;;;;;5014458;28;20448;-89
2022/03/16 12:22:51;;;;;;;99.53;44.42;;;;;;;;;;4996294;28;20038;-88
2022/03/16 12:31:00;;;;;;;105.80;49.30;;;;;;;;;;5013574;28;20033;-88
2022/03/16 12:33:34;;;;;;;111.65;49.72;;;;;;;;;;5009819;28;20073;-87
2022/03/16 12:36:02;;;;;;;112.53;50.58;;;;;;;;;;5011042;28;20045;-87
2022/03/16 12:38:31;;;;;;;111.65;49.85;;;;;;;;;;5020085;28;20029;-87
2022/03/16 12:43:49;;;;;;;103.22;45.50;;;;;;;;;;5026885;28;20040;-86
2022/03/16 12:46:16;;;;;;;108.00;48.50;;;;;;;;;;5031965;28;20026;-87
2022/03/16 12:48:46;;;;;;;112.68;48.75;;;;;;;;;;5029903;28;20550;-88
2022/03/16 12:51:18;;;;;;;103.85;46.33;;;;;;;;;;5014459;28;20075;-87
2022/03/16 12:53:47;;;;;;;114.20;49.53;;;;;;;;;;5022881;28;20108;-87
2022/03/16 12:56:17;;;;;;;118.25;52.50;;;;;;;;;;5012472;28;20021;-87
2022/03/16 12:58:56;;;;;;;109.13;50.22;;;;;;;;;;5028098;28;20109;-87
2022/03/16 13:01:23;;;;;;;106.97;50.35;;;;;;;;;;5014052;28;20025;-87
2022/03/16 13:04:02;;;;;;;120.28;52.85;;;;;;;;;;5010948;28;20120;-87
2022/03/16 13:06:33;;;;;;;105.10;47.33;;;;;;;;;;5013719;28;20048;-87
2022/03/16 13:09:06;;;;;;;114.50;48.28;;;;;;;;;;5031256;28;20451;-86
2022/03/16 13:11:32;;;;;;;105.53;48.85;;;;;;;;;;5028280;28;20029;-88
2022/03/16 13:14:07;;;;;;;108.13;50.50;;;;;;;;;;5029930;28;20064;-87
2022/03/16 13:16:55;;;;;;;104.53;47.38;;;;;;;;;;5013115;28;20074;-86
2022/03/16 13:19:25;;;;;;;112.72;49.35;;;;;;;;;;5012207;28;20025;-87
2022/03/16 13:22:04;;;;;;;111.78;48.60;;;;;;;;;;5014976;28;20045;-88
2022/03/16 13:24:37;;;;;;;104.75;47.47;;;;;;;;;;5002016;28;20058;-88
2022/03/16 13:27:11;;;;;;;114.35;48.50;;;;;;;;;;5022962;28;20064;-88
2022/03/16 13:29:38;;;;;;;106.82;44.55;;;;;;;;;;5027897;28;20025;-88
2022/03/16 13:32:08;;;;;;;101.05;44.75;;;;;;;;;;5014791;28;20041;-90
2022/03/16 13:34:39;;;;;;;96.30;41.20;;;;;;;;;;5019010;28;20496;-89
2022/03/16 13:37:25;;;;;;;89.85;40.78;;;;;;;;;;5008625;28;20410;-88
2022/03/16 13:39:58;;;;;;;83.82;41.10;;;;;;;;;;5017489;28;20473;-89
2022/03/16 13:42:35;;;;;;;94.22;41.65;;;;;;;;;;5001344;28;20026;-88
2022/03/16 13:45:15;;;;;;;92.57;39.45;;;;;;;;;;5021399;28;20743;-88
2022/03/16 13:48:00;;;;;;;88.45;39.53;;;;;;;;;;5011172;28;20029;-89
2022/03/16 13:50:27;;;;;;;88.18;38.97;;;;;;;;;;5008871;28;20046;-88
2022/03/16 13:52:53;;;;;;;102.47;41.47;;;;;;;;;;5003362;28;20476;-88
2022/03/16 13:55:20;;;;;;;104.75;43.53;;;;;;;;;;5008676;28;20030;-87
2022/03/16 13:57:48;;;;;;;106.13;44.63;;;;;;;;;;5021656;28;20030;-88
2022/03/16 14:00:16;;;;;;;106.68;44.67;;;;;;;;;;5006895;28;20057;-87
2022/03/16 14:02:44;;;;;;;117.35;48.28;;;;;;;;;;5027054;28;20422;-86
2022/03/16 14:05:19;;;;;;;127.80;51.58;;;;;;;;;;5009797;28;20088;-86
2022/03/16 14:07:47;;;;;;;162.15;58.95;;;;;;;;;;5006013;28;20026;-87
2022/03/16 14:10:19;;;;;;;174.60;68.90;;;;;;;;;;5009860;28;20054;-87
2022/03/16 14:12:45;;;;;;;194.65;72.75;;;;;;;;;;5007781;28;20030;-88
2022/03/16 14:15:18;;;;;;;186.85;67.13;;;;;;;;;;5007011;28;20072;-88
2022/03/16 14:17:44;;;;;;;198.48;72.97;;;;;;;;;;5006016;28;20121;-88
2022/03/16 14:20:14;;;;;;;185.57;68.50;;;;;;;;;;5019154;28;20022;-88
2022/03/16 14:22:44;;;;;;;169.20;65.15;;;;;;;;;;5014425;28;20036;-88
2022/03/16 14:25:17;;;;;;;154.60;61.17;;;;;;;;;;5010355;28;20469;-88
2022/03/16 14:27:44;;;;;;;171.48;65.22;;;;;;;;;;5009411;28;20080;-87
2022/03/16 14:30:13;;;;;;;147.43;61.40;;;;;;;;;;5012101;28;20125;-88
2022/03/16 14:32:39;;;;;;;162.85;62.92;;;;;;;;;;5013383;28;20030;-88
2022/03/16 14:35:06;;;;;;;179.25;67.63;;;;;;;;;;5012722;28;20033;-89
2022/03/16 14:37:42;;;;;;;180.90;66.85;;;;;;;;;;5010457;28;20022;-89
2022/03/16 14:40:09;;;;;;;182.40;67.60;;;;;;;;;;5009103;28;20029;-88
2022/03/16 14:42:36;;;;;;;168.77;65.28;;;;;;;;;;5011132;28;20049;-88
2022/03/16 14:45:03;;;;;;;169.93;62.17;;;;;;;;;;5031933;28;20037;-88